Time;durP1;ratioP1;P1;durP2;ratioP2;P2;SDS_P1;SDS_P2;PMS_P1;PMS_P2;Temp;Humidity;BMP_temperature;BMP_pressure;BME280_temperature;BME280_humidity;BME280_pressure;Samples;Min_cycle;Max_cycle;Signal;HPM_P1;HPM_P2
2023/09/15 00:01:55;;;;;;;28.20;20.83;;;;;;;23.47;95.40;99175.47;5084378;28;20092;-87
2023/09/15 00:04:38;;;;;;;29.65;21.00;;;;;;;23.50;95.39;99181.06;5088310;28;20065;-90
2023/09/15 00:07:23;;;;;;;27.75;19.85;;;;;;;23.57;95.30;99183.44;5087612;28;20071;-88
2023/09/15 00:10:19;;;;;;;26.90;19.77;;;;;;;23.56;95.58;99181.03;5096764;28;20075;-88
2023/09/15 00:13:03;;;;;;;27.67;20.35;;;;;;;23.60;95.69;99171.38;5085195;28;20047;-89
2023/09/15 00:15:51;;;;;;;29.08;20.95;;;;;;;23.63;95.42;99176.19;5099304;28;20166;-88
2023/09/15 00:18:36;;;;;;;30.90;21.65;;;;;;;23.61;95.41;99178.34;5083690;28;20113;-88
2023/09/15 00:21:20;;;;;;;30.95;21.60;;;;;;;23.56;95.35;99171.13;5104518;28;20088;-88
2023/09/15 00:24:05;;;;;;;32.72;21.65;;;;;;;23.59;95.66;99164.44;5100392;28;20089;-88
2023/09/15 00:26:50;;;;;;;31.38;21.95;;;;;;;23.65;95.51;99174.81;5088744;28;20507;-89
2023/09/15 00:29:35;;;;;;;33.42;22.98;;;;;;;23.51;96.45;99168.50;5104037;28;20035;-88
2023/09/15 00:32:19;;;;;;;30.48;21.08;;;;;;;23.56;96.29;99170.31;5102649;28;20034;-88
2023/09/15 00:35:03;;;;;;;30.83;21.08;;;;;;;23.62;96.40;99171.91;5092388;28;20065;-89
2023/09/15 00:37:49;;;;;;;27.77;19.38;;;;;;;23.59;96.33;99164.44;5087491;28;20471;-88
2023/09/15 00:40:33;;;;;;;30.27;20.90;;;;;;;23.66;96.44;99164.91;5090123;28;20090;-87
2023/09/15 00:43:17;;;;;;;26.15;19.75;;;;;;;23.59;96.43;99164.44;5105781;28;20043;-89
2023/09/15 00:46:02;;;;;;;27.15;19.13;;;;;;;23.61;96.19;99159.59;5089846;28;20405;-88
2023/09/15 00:48:48;;;;;;;28.23;19.00;;;;;;;23.59;96.30;99148.34;5079226;28;20096;-89
2023/09/15 00:51:32;;;;;;;26.63;17.83;;;;;;;23.47;96.61;99146.00;5083280;28;20038;-88
2023/09/15 00:54:17;;;;;;;28.50;19.02;;;;;;;23.52;96.67;99145.97;5101833;28;20062;-87
2023/09/15 00:57:02;;;;;;;31.42;19.35;;;;;;;23.42;97.21;99133.47;5086841;28;20043;-87
2023/09/15 00:59:48;;;;;;;24.52;17.73;;;;;;;23.46;97.12;99134.50;5087459;28;20512;-88
2023/09/15 01:02:32;;;;;;;24.80;16.38;;;;;;;23.53;96.68;99143.00;5101334;28;20043;-88
2023/09/15 01:05:25;;;;;;;23.80;16.15;;;;;;;23.61;96.60;99141.63;5089252;28;20070;-88
2023/09/15 01:08:09;;;;;;;26.00;17.35;;;;;;;23.64;96.33;99145.63;5085795;28;20127;-88
2023/09/15 01:10:53;;;;;;;25.98;16.90;;;;;;;23.60;96.67;99133.88;5101437;28;20058;-88
2023/09/15 01:13:38;;;;;;;29.23;17.92;;;;;;;23.57;96.91;99137.09;5084741;28;20435;-89
2023/09/15 01:16:45;;;;;;;27.48;16.95;;;;;;;23.65;96.77;99136.50;5088546;28;20080;-88
2023/09/15 01:19:28;;;;;;;30.95;18.65;;;;;;;23.65;96.49;99133.84;5086823;28;20523;-89
2023/09/15 01:22:19;;;;;;;31.00;19.27;;;;;;;23.70;96.47;99120.38;5087493;28;20051;-87
2023/09/15 01:25:16;;;;;;;25.17;18.10;;;;;;;23.73;96.48;99129.75;5103251;28;20089;-89
2023/09/15 01:28:19;;;;;;;34.25;19.75;;;;;;;23.61;96.92;99119.41;5087433;28;20099;-87
2023/09/15 01:31:05;;;;;;;37.28;21.98;;;;;;;23.57;96.92;99118.34;5089341;28;20097;-88
2023/09/15 01:33:51;;;;;;;37.67;21.08;;;;;;;23.61;96.82;99111.38;5082936;28;20067;-87
2023/09/15 01:36:35;;;;;;;39.63;23.10;;;;;;;23.65;97.01;99115.88;5089948;28;20062;-86
2023/09/15 01:39:19;;;;;;;34.53;22.05;;;;;;;23.58;97.11;99117.25;5101987;28;20043;-87
2023/09/15 01:42:04;;;;;;;34.25;21.40;;;;;;;23.61;97.11;99108.69;5082665;28;20042;-87
2023/09/15 01:44:48;;;;;;;36.00;22.25;;;;;;;23.61;97.21;99114.81;5098110;28;20235;-87
2023/09/15 01:47:32;;;;;;;38.25;23.30;;;;;;;23.70;96.96;99112.34;5100639;28;20100;-88
2023/09/15 01:50:17;;;;;;;33.40;21.60;;;;;;;23.66;97.26;99105.97;5081378;28;20124;-87
2023/09/15 01:53:01;;;;;;;35.67;22.40;;;;;;;23.69;96.91;99110.75;5084977;28;20034;-88
2023/09/15 01:55:48;;;;;;;35.90;22.95;;;;;;;23.56;97.96;99114.06;5089138;28;20054;-87
2023/09/15 01:58:32;;;;;;;40.30;24.10;;;;;;;23.67;97.21;99112.91;5085385;28;20108;-86
2023/09/15 02:01:16;;;;;;;37.28;24.38;;;;;;;23.65;97.53;99110.50;5082744;28;20401;-88
2023/09/15 02:04:00;;;;;;;36.58;23.00;;;;;;;23.54;98.13;99101.75;5085379;28;20061;-87
2023/09/15 02:06:44;;;;;;;34.80;22.50;;;;;;;23.64;97.65;99098.19;5087889;28;20122;-86
2023/09/15 02:09:28;;;;;;;36.72;23.55;;;;;;;23.69;97.58;99102.72;5083783;28;20054;-85
2023/09/15 02:12:12;;;;;;;36.42;22.15;;;;;;;23.62;97.76;99100.34;5083047;28;20180;-86
2023/09/15 02:14:56;;;;;;;35.63;22.98;;;;;;;23.62;98.06;99108.38;5087317;28;20039;-88
2023/09/15 02:17:40;;;;;;;33.80;23.15;;;;;;;23.64;98.29;99108.13;5091960;28;20369;-86
2023/09/15 02:20:25;;;;;;;34.92;23.42;;;;;;;23.79;97.60;99102.66;5080969;28;20062;-87
2023/09/15 02:23:09;;;;;;;36.58;23.85;;;;;;;23.74;97.79;99099.19;5104183;28;20053;-86
2023/09/15 02:25:53;;;;;;;36.65;24.83;;;;;;;23.76;97.88;99100.50;5086699;28;20393;-85
2023/09/15 02:28:37;;;;;;;33.05;23.08;;;;;;;23.76;97.58;99099.72;5086126;28;20050;-85
2023/09/15 02:31:21;;;;;;;37.63;23.23;;;;;;;24.05;96.64;99097.06;5087174;28;20104;-85
2023/09/15 02:34:05;;;;;;;34.05;23.15;;;;;;;24.18;96.67;99110.91;5108043;28;20476;-85
2023/09/15 02:36:49;;;;;;;34.53;23.20;;;;;;;24.20;95.92;99104.16;5087033;28;20039;-85
2023/09/15 02:39:35;;;;;;;34.25;22.70;;;;;;;24.16;95.99;99110.38;5093716;28;20030;-85
2023/09/15 02:42:19;;;;;;;34.17;23.25;;;;;;;24.15;96.04;99098.84;5088142;28;20123;-85
2023/09/15 02:45:04;;;;;;;35.47;23.35;;;;;;;24.15;95.67;99101.53;5086282;28;20207;-86
2023/09/15 02:47:48;;;;;;;36.53;23.90;;;;;;;24.21;95.92;99096.94;5104798;28;20080;-88
2023/09/15 02:50:32;;;;;;;36.33;22.58;;;;;;;24.28;95.68;99101.97;5089458;28;20047;-87
2023/09/15 02:53:16;;;;;;;30.05;21.60;;;;;;;23.91;96.87;99090.75;5104078;28;20038;-85
2023/09/15 02:56:05;;;;;;;30.30;22.13;;;;;;;23.92;96.97;99098.50;5102627;28;20386;-85
2023/09/15 02:58:49;;;;;;;34.08;23.15;;;;;;;23.87;97.37;99090.50;5088278;28;20451;-85
2023/09/15 03:01:33;;;;;;;32.53;23.00;;;;;;;23.88;97.36;99086.75;5089402;28;20046;-85
2023/09/15 03:04:19;;;;;;;29.02;21.52;;;;;;;23.81;97.99;99089.75;5104439;28;20051;-86
2023/09/15 03:07:03;;;;;;;32.30;22.98;;;;;;;24.14;96.39;99083.03;5082435;28;20043;-85
2023/09/15 03:09:47;;;;;;;30.58;22.38;;;;;;;23.78;97.47;99093.00;5105044;28;20092;-86
2023/09/15 03:12:31;;;;;;;32.20;22.92;;;;;;;23.77;98.00;99083.34;5084194;28;20097;-85
2023/09/15 03:15:16;;;;;;;35.88;24.13;;;;;;;24.14;96.50;99083.03;5102298;28;20390;-85
2023/09/15 03:18:00;;;;;;;29.23;23.05;;;;;;;24.17;96.12;99075.25;5086642;28;20055;-87
2023/09/15 03:20:44;;;;;;;32.20;22.65;;;;;;;24.12;96.14;99066.44;5102569;28;20698;-87
2023/09/15 03:23:28;;;;;;;33.58;23.33;;;;;;;24.16;96.00;99067.47;5089468;28;20046;-87
2023/09/15 03:26:13;;;;;;;35.35;22.77;;;;;;;24.10;96.14;99067.53;5085775;28;20101;-87
2023/09/15 03:28:57;;;;;;;31.02;22.40;;;;;;;24.05;96.19;99064.91;5088687;28;20106;-87
2023/09/15 03:31:41;;;;;;;36.97;24.48;;;;;;;23.74;96.75;99062.47;5090873;28;20051;-88
2023/09/15 03:34:25;;;;;;;30.00;21.77;;;;;;;24.05;96.72;99066.78;5083154;28;20496;-86
2023/09/15 03:37:09;;;;;;;32.90;24.05;;;;;;;24.06;96.48;99060.31;5093942;28;20043;-87
2023/09/15 03:39:53;;;;;;;31.88;22.85;;;;;;;24.06;96.02;99063.81;5087074;28;20034;-87
2023/09/15 03:42:38;;;;;;;34.00;23.45;;;;;;;24.10;95.64;99056.03;5091551;28;20093;-87
2023/09/15 03:45:22;;;;;;;30.65;22.52;;;;;;;23.74;96.73;99043.72;5092148;28;20066;-87
2023/09/15 03:48:07;;;;;;;30.38;22.98;;;;;;;23.68;97.38;99050.22;5087323;28;20050;-88
2023/09/15 03:50:52;;;;;;;30.50;22.60;;;;;;;23.64;97.93;99054.53;5085720;28;20063;-87
2023/09/15 03:53:37;;;;;;;29.02;21.50;;;;;;;23.63;97.93;99052.94;5088359;28;20092;-88
2023/09/15 03:56:21;;;;;;;31.35;22.38;;;;;;;23.68;97.75;99050.22;5090767;28;20042;-88
2023/09/15 03:59:05;;;;;;;29.35;21.55;;;;;;;23.68;97.78;99051.03;5091495;28;20536;-88
2023/09/15 04:01:49;;;;;;;31.20;21.17;;;;;;;24.03;96.67;99044.81;5103021;28;20105;-89
2023/09/15 04:04:33;;;;;;;35.63;23.50;;;;;;;23.98;96.22;99044.84;5091030;28;20088;-88
2023/09/15 04:07:18;;;;;;;33.65;24.13;;;;;;;23.50;97.96;99022.25;5090285;28;20551;-88
2023/09/15 04:10:02;;;;;;;29.08;22.02;;;;;;;23.47;97.99;99039.66;5101800;28;20088;-87
2023/09/15 04:12:46;;;;;;;35.80;24.60;;;;;;;23.46;97.97;99042.59;5085605;28;20046;-86
2023/09/15 04:15:30;;;;;;;35.65;24.02;;;;;;;23.35;98.31;99037.34;5088264;28;20116;-89
2023/09/15 04:18:14;;;;;;;31.13;23.65;;;;;;;23.37;98.32;99034.38;5087390;28;20039;-88
2023/09/15 04:20:59;;;;;;;30.42;22.33;;;;;;;23.46;98.36;99040.75;5085367;28;20074;-88
2023/09/15 04:23:43;;;;;;;32.30;23.08;;;;;;;23.44;98.31;99040.22;5091061;28;20042;-88
2023/09/15 04:26:27;;;;;;;29.55;22.38;;;;;;;23.38;98.58;99030.63;5098475;28;20527;-88
2023/09/15 04:29:11;;;;;;;35.85;24.17;;;;;;;23.36;98.52;99028.22;5087062;28;20096;-89
2023/09/15 04:31:56;;;;;;;32.40;23.55;;;;;;;23.31;98.91;99035.50;5090848;28;20046;-88
2023/09/15 04:34:40;;;;;;;34.22;22.98;;;;;;;23.33;98.63;99028.78;5099828;28;20042;-89
2023/09/15 04:37:24;;;;;;;32.28;23.20;;;;;;;23.35;98.47;99015.09;5091117;28;20075;-90
2023/09/15 04:40:08;;;;;;;33.80;24.65;;;;;;;23.16;98.89;99009.63;5098238;28;20054;-88
2023/09/15 04:42:52;;;;;;;34.10;22.85;;;;;;;23.13;99.27;99015.53;5084882;28;20497;-87
2023/09/15 04:45:36;;;;;;;30.83;22.88;;;;;;;23.08;99.45;99027.06;5083337;28;20343;-88
2023/09/15 04:48:20;;;;;;;33.42;23.45;;;;;;;22.97;99.76;99021.75;5087741;28;20451;-89
2023/09/15 04:51:05;;;;;;;35.55;26.05;;;;;;;22.97;100.00;99029.00;5090080;28;20081;-87
2023/09/15 04:53:49;;;;;;;37.47;24.15;;;;;;;23.01;99.87;99027.38;5084880;28;20456;-87
2023/09/15 04:56:33;;;;;;;35.47;24.48;;;;;;;23.00;100.00;99025.00;5092538;28;20050;-86
2023/09/15 04:59:17;;;;;;;38.42;25.33;;;;;;;22.92;100.00;99023.69;5091466;28;20508;-87
2023/09/15 05:02:01;;;;;;;34.78;23.23;;;;;;;22.96;100.00;99028.19;5084202;28;20069;-89
2023/09/15 05:04:46;;;;;;;32.42;22.40;;;;;;;22.92;100.00;99024.47;5089056;28;20043;-87
2023/09/15 05:07:30;;;;;;;32.67;22.42;;;;;;;22.93;100.00;99026.06;5087779;28;20123;-88
2023/09/15 05:10:14;;;;;;;27.00;20.95;;;;;;;22.91;100.00;99025.56;5099054;28;20081;-87
2023/09/15 05:13:00;;;;;;;29.38;22.75;;;;;;;22.90;100.00;99023.16;5085263;28;20039;-86
2023/09/15 05:15:44;;;;;;;30.70;20.17;;;;;;;22.93;100.00;99020.72;5084738;28;20039;-88
2023/09/15 05:18:32;;;;;;;33.58;21.33;;;;;;;22.92;100.00;99034.41;5084189;28;20043;-86
2023/09/15 05:21:16;;;;;;;30.45;21.83;;;;;;;23.25;99.98;99029.34;5086301;28;20039;-89
2023/09/15 05:23:59;;;;;;;33.97;23.27;;;;;;;22.98;100.00;99022.56;5104819;28;20074;-87
2023/09/15 05:26:43;;;;;;;29.02;22.08;;;;;;;22.96;100.00;99020.16;5086985;28;20050;-87
2023/09/15 05:29:27;;;;;;;32.95;22.98;;;;;;;23.02;100.00;99026.28;5089567;28;20085;-87
2023/09/15 05:32:11;;;;;;;31.48;22.08;;;;;;;23.02;100.00;99026.28;5082643;28;20039;-87
2023/09/15 05:34:55;;;;;;;32.53;23.83;;;;;;;23.09;100.00;99028.66;5084561;28;20047;-87
2023/09/15 05:37:45;;;;;;;34.17;23.15;;;;;;;23.11;100.00;99031.84;5081733;28;20111;-89
2023/09/15 05:40:29;;;;;;;33.45;23.17;;;;;;;23.14;100.00;99023.25;5088836;28;20092;-90
2023/09/15 05:43:13;;;;;;;29.05;22.05;;;;;;;23.25;100.00;99035.53;5083782;28;20034;-88
2023/09/15 05:45:57;;;;;;;36.22;23.85;;;;;;;23.20;100.00;99024.03;5080982;28;20050;-89
2023/09/15 05:48:41;;;;;;;29.85;22.67;;;;;;;23.29;100.00;99032.31;5105154;28;20121;-88
2023/09/15 05:51:25;;;;;;;35.47;24.40;;;;;;;23.36;100.00;99027.41;5087490;28;20054;-89
2023/09/15 05:54:09;;;;;;;34.83;23.27;;;;;;;23.46;100.00;99032.72;5081870;28;20055;-88
2023/09/15 05:56:54;;;;;;;41.80;25.70;;;;;;;23.66;100.00;99033.63;5088185;28;20062;-88
2023/09/15 05:59:38;;;;;;;38.30;25.35;;;;;;;23.65;100.00;99035.47;5090845;28;20069;-89
2023/09/15 06:02:22;;;;;;;42.53;26.30;;;;;;;23.64;100.00;99025.06;5085180;28;20038;-89
2023/09/15 06:05:06;;;;;;;33.78;23.88;;;;;;;23.81;99.53;99038.84;5084238;28;20174;-89
2023/09/15 06:11:31;;;;;;;32.95;24.08;;;;;;;23.97;99.40;99033.31;5104887;28;20046;-89
2023/09/15 06:14:15;;;;;;;36.22;25.70;;;;;;;23.92;99.05;99039.53;5088867;28;20062;-89
2023/09/15 06:17:01;;;;;;;36.05;24.80;;;;;;;23.96;98.76;99034.38;5082763;28;20035;-89
2023/09/15 06:19:45;;;;;;;35.08;24.42;;;;;;;24.06;97.32;99033.50;5086736;28;20074;-89
2023/09/15 06:22:29;;;;;;;33.53;24.58;;;;;;;24.02;97.69;99027.94;5093195;28;20077;-89
2023/09/15 06:25:13;;;;;;;32.42;23.70;;;;;;;24.05;97.83;99022.00;5079069;28;20097;-89
2023/09/15 06:27:59;;;;;;;;;;;;;;;24.23;97.44;99033.09;5087045;28;20039;-88
2023/09/15 06:30:43;;;;;;;35.72;24.05;;;;;;;24.15;96.73;99039.06;5094692;28;19919;-87
2023/09/15 06:33:27;;;;;;;33.80;23.80;;;;;;;24.16;96.88;99027.25;5092121;28;20038;-87
2023/09/15 06:36:11;;;;;;;35.72;24.95;;;;;;;23.99;96.08;99025.81;5082235;28;20174;-85
2023/09/15 06:38:55;;;;;;;35.10;25.88;;;;;;;23.95;96.06;99041.66;5085910;28;20413;-85
2023/09/15 06:41:39;;;;;;;32.28;24.85;;;;;;;24.10;96.58;99034.56;5085586;28;20112;-86
2023/09/15 06:44:23;;;;;;;34.53;24.45;;;;;;;24.36;96.13;99026.22;5084430;28;20119;-90
2023/09/15 06:47:08;;;;;;;34.00;24.80;;;;;;;24.53;95.45;99026.56;5071208;28;20051;-88
2023/09/15 06:49:52;;;;;;;30.75;23.40;;;;;;;24.75;95.27;99021.69;5076731;28;20450;-89
2023/09/15 06:52:36;;;;;;;36.00;25.95;;;;;;;24.95;93.25;99034.88;5091543;28;20047;-87
2023/09/15 06:55:20;;;;;;;33.40;23.65;;;;;;;25.12;93.65;99032.78;5075803;28;20164;-88
2023/09/15 06:58:03;;;;;;;32.13;23.75;;;;;;;25.22;92.86;99035.28;5100508;28;20042;-87
2023/09/15 07:00:47;;;;;;;31.63;23.45;;;;;;;25.32;92.29;99024.38;5088616;28;20531;-88
2023/09/15 07:03:32;;;;;;;29.05;22.38;;;;;;;25.35;91.43;99028.38;5083054;28;20402;-88
2023/09/15 07:06:18;;;;;;;26.05;21.48;;;;;;;25.36;90.42;99024.63;5092409;28;20039;-88
2023/09/15 07:09:03;;;;;;;29.73;22.58;;;;;;;25.47;90.53;99026.06;5093480;28;20474;-90
2023/09/15 07:11:48;;;;;;;27.58;21.77;;;;;;;25.46;89.30;99029.81;5097058;28;20382;-89
2023/09/15 07:14:32;;;;;;;28.63;21.23;;;;;;;25.28;89.37;99031.44;5082207;28;20055;-88
2023/09/15 07:17:17;;;;;;;27.63;20.45;;;;;;;25.38;89.02;99033.19;5091833;28;20185;-88
2023/09/15 07:20:02;;;;;;;22.20;19.10;;;;;;;25.40;89.11;99041.72;5096236;28;20058;-88
2023/09/15 07:22:47;;;;;;;22.90;16.20;;;;;;;25.37;88.91;99042.31;5089693;28;20115;-88
2023/09/15 07:25:31;;;;;;;22.00;15.85;;;;;;;25.44;88.35;99037.38;5106485;28;20046;-89
2023/09/15 07:28:15;;;;;;;20.02;15.30;;;;;;;25.38;87.59;99033.19;5087833;28;20074;-86
2023/09/15 07:31:09;;;;;;;22.08;14.45;;;;;;;25.63;86.57;99028.50;5094591;28;20047;-85
2023/09/15 07:33:53;;;;;;;18.27;13.43;;;;;;;25.77;85.55;99034.69;5086339;28;20058;-87
2023/09/15 07:36:37;;;;;;;17.70;14.00;;;;;;;25.56;85.69;99026.19;5092227;28;22078;-88
2023/09/15 07:39:21;;;;;;;14.35;12.43;;;;;;;25.75;84.78;99033.38;5104411;28;20043;-87
2023/09/15 07:42:08;;;;;;;17.88;13.70;;;;;;;25.78;84.50;99025.53;5085536;28;20173;-88
2023/09/15 07:44:53;;;;;;;17.85;13.38;;;;;;;25.75;84.62;99014.56;5084016;28;20073;-89
2023/09/15 07:47:37;;;;;;;17.95;11.82;;;;;;;25.86;84.65;99015.19;5089323;28;20050;-90
2023/09/15 07:50:21;;;;;;;16.85;12.60;;;;;;;25.85;84.78;99010.91;5091229;28;20389;-86
2023/09/15 07:53:05;;;;;;;15.93;12.52;;;;;;;25.80;85.13;99009.91;5085349;28;20059;-88
2023/09/15 07:55:49;;;;;;;19.25;11.85;;;;;;;25.82;84.65;99009.59;5084597;28;20128;-89
2023/09/15 07:58:33;;;;;;;16.17;11.80;;;;;;;25.85;84.77;99018.97;5089986;28;20401;-88
2023/09/15 08:01:18;;;;;;;14.70;11.63;;;;;;;25.69;85.09;99013.84;5091540;28;20035;-88
2023/09/15 08:04:02;;;;;;;15.70;11.57;;;;;;;25.93;84.79;99020.94;5076198;28;20153;-88
2023/09/15 08:06:48;;;;;;;14.15;11.02;;;;;;;26.03;83.96;99007.34;5089249;28;20119;-88
2023/09/15 08:09:32;;;;;;;17.42;11.32;;;;;;;25.92;83.84;99017.47;5100780;28;20109;-89
2023/09/15 08:12:19;;;;;;;15.73;11.45;;;;;;;25.82;84.31;99004.22;5095767;28;20080;-89
2023/09/15 08:15:05;;;;;;;18.77;10.82;;;;;;;26.09;83.90;99008.81;5111311;28;20039;-89
2023/09/15 08:17:49;;;;;;;12.52;10.50;;;;;;;26.19;83.86;99017.81;5110473;28;20646;-87
2023/09/15 08:20:33;;;;;;;12.13;9.90;;;;;;;26.23;82.58;99011.53;5089820;28;20030;-89
2023/09/15 08:23:17;;;;;;;17.67;10.13;;;;;;;26.36;82.10;99015.31;5105205;28;20066;-87
2023/09/15 08:26:01;;;;;;;13.82;10.38;;;;;;;26.26;80.94;99018.22;5076180;28;20094;-87
2023/09/15 08:28:46;;;;;;;16.52;10.52;;;;;;;26.05;81.41;99010.50;5088889;28;20035;-88
2023/09/15 08:31:30;;;;;;;15.80;10.20;;;;;;;26.22;80.14;99017.22;5096730;28;20412;-89
2023/09/15 08:34:14;;;;;;;12.75;10.05;;;;;;;26.03;80.39;99012.72;5093252;28;20104;-87
2023/09/15 08:36:58;;;;;;;16.80;10.30;;;;;;;26.19;80.23;99012.44;5084240;28;20066;-89
2023/09/15 08:39:42;;;;;;;13.70;9.40;;;;;;;26.06;81.22;99020.19;5086785;28;20515;-89
2023/09/15 08:42:28;;;;;;;11.60;9.27;;;;;;;26.25;80.29;99016.63;5085578;28;20041;-89
2023/09/15 08:45:13;;;;;;;12.15;9.23;;;;;;;26.29;79.78;99023.00;5098354;28;20046;-89
2023/09/15 08:47:59;;;;;;;12.57;9.07;;;;;;;26.19;80.62;99017.81;5085553;28;20047;-89
2023/09/15 08:50:45;;;;;;;10.55;9.02;;;;;;;26.26;79.29;99020.91;5101208;28;20046;-89
2023/09/15 08:53:31;;;;;;;11.00;9.13;;;;;;;26.30;80.12;99023.81;5102899;28;20034;-88
2023/09/15 08:56:16;;;;;;;12.68;9.95;;;;;;;26.42;80.38;99028.66;5089936;28;20043;-90
2023/09/15 08:59:03;;;;;;;14.15;9.77;;;;;;;26.19;81.25;99017.81;5100688;28;20089;-88
2023/09/15 09:01:47;;;;;;;14.52;9.32;;;;;;;26.57;80.68;99025.66;5099108;28;20443;-89
2023/09/15 09:04:31;;;;;;;11.63;8.95;;;;;;;26.63;80.27;99027.13;5105725;28;20126;-89
2023/09/15 09:07:16;;;;;;;10.70;8.20;;;;;;;26.91;78.78;99023.63;5115214;27;20047;-89
2023/09/15 09:10:01;;;;;;;12.23;7.68;;;;;;;27.03;78.76;99023.88;5099182;28;20566;-89
2023/09/15 09:12:45;;;;;;;8.88;7.07;;;;;;;27.01;79.97;99025.28;5101423;28;20042;-88
2023/09/15 09:15:32;;;;;;;8.88;7.13;;;;;;;27.28;78.91;99028.94;5097699;28;20039;-89
2023/09/15 09:18:18;;;;;;;12.40;6.70;;;;;;;27.54;78.16;99026.47;5085166;28;20092;-89
2023/09/15 09:21:04;;;;;;;8.45;6.40;;;;;;;27.75;76.39;99020.53;5102341;28;20497;-89
2023/09/15 09:23:49;;;;;;;9.35;7.10;;;;;;;27.87;75.90;99011.88;5102981;28;20123;-89
2023/09/15 09:26:33;;;;;;;21.25;7.72;;;;;;;28.17;74.06;99020.25;5103610;28;20576;-89
2023/09/15 09:29:24;;;;;;;10.80;7.50;;;;;;;28.17;74.47;99020.25;5100380;28;20035;-89
2023/09/15 09:32:15;;;;;;;9.43;6.28;;;;;;;28.27;73.90;99017.25;5103517;28;20046;-90
2023/09/15 09:34:59;;;;;;;11.02;6.07;;;;;;;28.18;74.15;99016.47;5092521;28;20042;-90
2023/09/15 09:37:43;;;;;;;8.73;6.80;;;;;;;28.39;73.65;99021.28;5088183;28;20070;-88
2023/09/15 09:40:27;;;;;;;9.27;6.95;;;;;;;28.31;73.88;99023.66;5085078;28;20046;-88
2023/09/15 09:43:16;;;;;;;10.65;7.65;;;;;;;28.32;73.47;99027.94;5102377;28;20082;-88
2023/09/15 09:46:02;;;;;;;10.75;6.78;;;;;;;28.48;73.83;99022.88;5090474;28;20047;-90
2023/09/15 09:48:47;;;;;;;12.30;7.43;;;;;;;28.36;71.68;99019.97;5088292;28;20105;-89
2023/09/15 09:51:33;;;;;;;7.93;6.57;;;;;;;28.11;72.77;99019.56;5099564;28;20512;-89
2023/09/15 09:54:17;;;;;;;8.25;7.07;;;;;;;28.50;71.58;99017.19;5089000;28;20058;-89
2023/09/15 09:57:02;;;;;;;11.32;7.40;;;;;;;28.28;71.27;99021.56;5104071;28;20152;-89
2023/09/15 09:59:47;;;;;;;8.63;7.55;;;;;;;28.46;69.56;99016.19;5108262;28;20096;-89
2023/09/15 10:02:31;;;;;;;9.52;7.70;;;;;;;28.24;69.74;99020.59;5107083;28;20166;-89
2023/09/15 10:05:15;;;;;;;10.07;6.25;;;;;;;28.20;70.32;99011.53;5083409;28;20051;-88
2023/09/15 10:07:59;;;;;;;8.98;6.78;;;;;;;28.19;71.04;99018.81;5104009;28;20084;-88
2023/09/15 10:10:45;;;;;;;9.48;7.93;;;;;;;28.58;68.56;98999.38;5108280;28;20547;-88
2023/09/15 10:13:32;;;;;;;9.93;7.43;;;;;;;28.43;69.46;99004.13;5105728;28;20038;-88
2023/09/15 10:16:17;;;;;;;8.93;6.55;;;;;;;28.35;69.63;99000.31;5103206;28;20520;-88
2023/09/15 10:19:03;;;;;;;11.35;6.90;;;;;;;28.30;69.00;99000.47;5100632;28;20116;-90
2023/09/15 10:21:48;;;;;;;9.27;6.93;;;;;;;28.26;68.28;98996.00;5101297;28;20035;-89
2023/09/15 10:24:32;;;;;;;9.90;6.40;;;;;;;28.28;68.85;98997.25;5101605;28;20070;-89
2023/09/15 10:27:17;;;;;;;11.07;6.78;;;;;;;28.53;66.76;98994.94;5086065;28;20408;-88
2023/09/15 10:30:04;;;;;;;8.68;5.85;;;;;;;28.78;68.58;98992.56;5086674;28;20088;-88
2023/09/15 10:32:50;;;;;;;7.78;5.53;;;;;;;29.01;67.20;98987.03;5090119;28;20481;-89
2023/09/15 10:35:38;;;;;;;7.82;6.00;;;;;;;29.01;67.59;98989.72;5088480;28;20499;-89
2023/09/15 10:38:29;;;;;;;8.25;5.65;;;;;;;29.05;66.76;98985.25;5088843;28;20046;-89
2023/09/15 10:41:27;;;;;;;9.55;5.35;;;;;;;28.72;66.07;98986.53;5102611;28;20047;-89
2023/09/15 10:44:12;;;;;;;7.47;5.35;;;;;;;28.68;66.41;98984.75;5100622;28;20046;-88
2023/09/15 10:46:56;;;;;;;7.78;6.00;;;;;;;28.36;65.91;98985.69;5092077;28;20039;-90
2023/09/15 10:49:49;;;;;;;8.00;6.45;;;;;;;28.30;66.34;98986.97;5107687;28;20512;-90
2023/09/15 10:52:37;;;;;;;7.88;6.70;;;;;;;28.32;67.32;98983.94;5107678;28;20109;-89
2023/09/15 10:55:21;;;;;;;9.15;6.82;;;;;;;28.62;66.78;98974.13;5087531;28;20119;-90
2023/09/15 10:58:05;;;;;;;13.02;7.95;;;;;;;28.36;67.66;98988.41;5102493;28;20118;-90
2023/09/15 11:00:50;;;;;;;10.00;7.85;;;;;;;28.08;66.95;98980.50;5088376;28;20512;-90
2023/09/15 11:03:36;;;;;;;10.15;7.90;;;;;;;27.94;66.86;98975.25;5102810;28;20063;-88
2023/09/15 11:06:20;;;;;;;10.00;7.93;;;;;;;27.80;67.53;98975.34;5089248;28;20451;-89
2023/09/15 11:09:05;;;;;;;11.02;8.30;;;;;;;27.54;67.63;98972.53;5105480;28;20524;-89
2023/09/15 11:11:51;;;;;;;12.73;7.97;;;;;;;27.50;68.33;98969.63;5094313;28;20038;-91
2023/09/15 11:14:35;;;;;;;14.68;8.93;;;;;;;27.71;68.51;98974.53;5108201;28;20093;-89
2023/09/15 11:17:19;;;;;;;13.70;8.25;;;;;;;28.31;68.07;98960.75;5106602;28;20078;-88
2023/09/15 11:20:06;;;;;;;9.52;7.30;;;;;;;28.45;66.65;98971.41;5090347;28;20093;-88
2023/09/15 11:22:55;;;;;;;11.18;8.13;;;;;;;28.32;66.82;98968.56;5105121;28;20035;-89
2023/09/15 11:25:39;;;;;;;12.35;9.38;;;;;;;28.23;67.29;98967.72;5085291;28;20169;-89
2023/09/15 11:28:23;;;;;;;17.13;9.68;;;;;;;28.30;67.87;98976.19;5092484;28;20099;-89
2023/09/15 11:31:09;;;;;;;12.82;10.20;;;;;;;28.22;67.21;98974.25;5091942;28;20096;-89
2023/09/15 11:33:55;;;;;;;11.35;9.20;;;;;;;28.40;67.71;98968.88;5109744;28;20034;-88
2023/09/15 11:36:39;;;;;;;14.95;9.45;;;;;;;28.77;67.71;98977.47;5102945;28;20117;-90
2023/09/15 11:39:24;;;;;;;12.50;9.00;;;;;;;29.15;66.94;98978.72;5107257;28;20050;-89
2023/09/15 11:42:11;;;;;;;11.55;8.27;;;;;;;29.46;65.49;98962.31;5085825;28;20160;-90
2023/09/15 11:44:55;;;;;;;10.52;7.97;;;;;;;29.46;65.54;98973.13;5105982;28;20084;-89
2023/09/15 11:47:43;;;;;;;9.82;7.47;;;;;;;29.46;63.75;98970.41;5108407;28;20508;-89
2023/09/15 11:50:28;;;;;;;10.57;8.05;;;;;;;29.46;64.00;98965.00;5100720;28;20085;-89
2023/09/15 11:53:13;;;;;;;12.05;9.00;;;;;;;29.59;62.71;98957.03;5108747;28;20038;-90
2023/09/15 11:55:57;;;;;;;10.48;8.25;;;;;;;30.06;61.53;98959.69;5102830;28;20488;-89
2023/09/15 11:58:42;;;;;;;13.18;7.60;;;;;;;30.26;61.80;98957.31;5087324;28;20035;-89
2023/09/15 12:01:28;;;;;;;9.95;7.82;;;;;;;30.15;60.20;98950.72;5085080;28;20046;-89
2023/09/15 12:04:13;;;;;;;9.90;7.70;;;;;;;29.82;59.02;98956.75;5102669;28;20870;-90
2023/09/15 12:06:57;;;;;;;9.20;6.57;;;;;;;30.15;59.81;98950.72;5100568;28;20492;-88
2023/09/15 12:09:41;;;;;;;8.38;7.47;;;;;;;30.02;60.38;98949.84;5105431;28;20084;-89
2023/09/15 12:12:25;;;;;;;9.43;7.88;;;;;;;30.15;60.28;98950.72;5106728;28;20081;-88
2023/09/15 12:15:10;;;;;;;8.38;7.40;;;;;;;30.46;59.51;98954.97;5105858;28;20039;-90
2023/09/15 12:17:56;;;;;;;12.38;7.93;;;;;;;30.30;58.68;98949.34;5102383;28;20047;-90
2023/09/15 12:20:40;;;;;;;13.00;7.45;;;;;;;30.12;59.36;98943.28;5090169;28;20103;-89
2023/09/15 12:23:27;;;;;;;11.23;7.40;;;;;;;29.95;59.09;98946.81;5105064;28;20101;-89
2023/09/15 12:26:11;;;;;;;10.13;7.40;;;;;;;30.10;59.57;98946.28;5104775;28;20397;-90
2023/09/15 12:28:55;;;;;;;9.95;7.68;;;;;;;30.12;58.58;98943.28;5087153;28;20444;-90
2023/09/15 12:31:47;;;;;;;7.47;6.47;;;;;;;30.14;59.24;98946.44;5104377;28;20101;-89
2023/09/15 12:34:32;;;;;;;7.60;6.25;;;;;;;30.06;58.65;98948.06;5107497;28;20052;-90
2023/09/15 12:37:16;;;;;;;9.10;6.78;;;;;;;29.57;58.84;98943.03;5103799;28;20089;-89
2023/09/15 12:40:00;;;;;;;8.05;7.10;;;;;;;29.41;58.16;98940.06;5103496;28;20062;-90
2023/09/15 12:42:45;;;;;;;7.20;6.40;;;;;;;29.54;56.94;98943.69;5090009;28;20038;-90
2023/09/15 12:45:29;;;;;;;7.43;6.55;;;;;;;29.53;58.53;98942.09;5083529;28;20093;-89
2023/09/15 12:48:13;;;;;;;11.02;7.53;;;;;;;29.41;59.54;98940.84;5086267;28;20046;-90